sensor_id;sensor_type;location;lat;lon;timestamp;temperature;humidity
4081;DHT22;2055;50.074;8.436;2023-02-28T00:00:06;0.50;99.90
4081;DHT22;2055;50.074;8.436;2023-02-28T00:02:39;0.50;99.90
4081;DHT22;2055;50.074;8.436;2023-02-28T00:05:06;0.50;99.90
4081;DHT22;2055;50.074;8.436;2023-02-28T00:07:32;0.50;99.90
4081;DHT22;2055;50.074;8.436;2023-02-28T00:09:57;0.70;99.90
4081;DHT22;2055;50.074;8.436;2023-02-28T00:12:24;0.60;99.90
4081;DHT22;2055;50.074;8.436;2023-02-28T00:14:50;0.60;99.90
4081;DHT22;2055;50.074;8.436;2023-02-28T00:17:16;0.60;99.90
4081;DHT22;2055;50.074;8.436;2023-02-28T00:19:43;0.60;99.90
4081;DHT22;2055;50.074;8.436;2023-02-28T00:22:09;0.70;99.90
4081;DHT22;2055;50.074;8.436;2023-02-28T00:24:35;0.80;99.90
4081;DHT22;2055;50.074;8.436;2023-02-28T00:27:00;0.70;99.90
4081;DHT22;2055;50.074;8.436;2023-02-28T00:29:26;0.60;99.90
4081;DHT22;2055;50.074;8.436;2023-02-28T00:31:51;0.60;99.90
4081;DHT22;2055;50.074;8.436;2023-02-28T00:34:17;0.50;99.90
4081;DHT22;2055;50.074;8.436;2023-02-28T00:36:42;0.40;99.90
4081;DHT22;2055;50.074;8.436;2023-02-28T00:39:11;0.40;99.90
4081;DHT22;2055;50.074;8.436;2023-02-28T00:41:36;0.30;99.90
4081;DHT22;2055;50.074;8.436;2023-02-28T00:44:02;0.30;99.90
4081;DHT22;2055;50.074;8.436;2023-02-28T00:46:27;0.30;99.90
4081;DHT22;2055;50.074;8.436;2023-02-28T00:48:53;0.30;99.90
4081;DHT22;2055;50.074;8.436;2023-02-28T00:51:19;0.30;99.90
4081;DHT22;2055;50.074;8.436;2023-02-28T00:53:44;0.20;99.90
4081;DHT22;2055;50.074;8.436;2023-02-28T00:56:10;0.30;99.90
4081;DHT22;2055;50.074;8.436;2023-02-28T00:58:35;0.20;99.90
4081;DHT22;2055;50.074;8.436;2023-02-28T01:01:01;0.10;99.90
4081;DHT22;2055;50.074;8.436;2023-02-28T01:03:26;0.10;99.90
4081;DHT22;2055;50.074;8.436;2023-02-28T01:05:52;0.10;99.90
4081;DHT22;2055;50.074;8.436;2023-02-28T01:08:20;0.10;99.90
4081;DHT22;2055;50.074;8.436;2023-02-28T01:10:47;0.10;99.90
4081;DHT22;2055;50.074;8.436;2023-02-28T01:13:13;0.00;99.90
4081;DHT22;2055;50.074;8.436;2023-02-28T01:15:50;0.30;99.90
4081;DHT22;2055;50.074;8.436;2023-02-28T01:18:16;0.00;99.90
4081;DHT22;2055;50.074;8.436;2023-02-28T01:20:42;0.00;99.90
4081;DHT22;2055;50.074;8.436;2023-02-28T01:23:07;-0.10;99.90
4081;DHT22;2055;50.074;8.436;2023-02-28T01:25:35;-0.10;99.90
4081;DHT22;2055;50.074;8.436;2023-02-28T01:28:01;0.00;99.90
4081;DHT22;2055;50.074;8.436;2023-02-28T01:30:26;0.00;99.90
4081;DHT22;2055;50.074;8.436;2023-02-28T01:32:52;0.00;99.90
4081;DHT22;2055;50.074;8.436;2023-02-28T01:35:19;0.00;99.90
4081;DHT22;2055;50.074;8.436;2023-02-28T01:37:44;0.00;99.90
4081;DHT22;2055;50.074;8.436;2023-02-28T01:40:11;0.10;99.90
4081;DHT22;2055;50.074;8.436;2023-02-28T01:42:36;0.10;99.90
4081;DHT22;2055;50.074;8.436;2023-02-28T01:45:22;0.00;99.90
4081;DHT22;2055;50.074;8.436;2023-02-28T01:47:52;0.20;99.90
4081;DHT22;2055;50.074;8.436;2023-02-28T01:50:27;0.00;99.90
4081;DHT22;2055;50.074;8.436;2023-02-28T01:52:55;0.00;99.90
4081;DHT22;2055;50.074;8.436;2023-02-28T01:55:24;0.00;99.90
4081;DHT22;2055;50.074;8.436;2023-02-28T01:57:56;0.20;99.90
4081;DHT22;2055;50.074;8.436;2023-02-28T02:00:24;-0.10;99.90
4081;DHT22;2055;50.074;8.436;2023-02-28T02:02:57;-0.20;99.90
4081;DHT22;2055;50.074;8.436;2023-02-28T02:05:25;-0.20;99.90
4081;DHT22;2055;50.074;8.436;2023-02-28T02:07:54;-0.30;99.90
4081;DHT22;2055;50.074;8.436;2023-02-28T02:10:31;-0.30;99.90
4081;DHT22;2055;50.074;8.436;2023-02-28T02:18:50;-0.20;99.90
4081;DHT22;2055;50.074;8.436;2023-02-28T02:35:24;-0.30;99.90
4081;DHT22;2055;50.074;8.436;2023-02-28T02:38:06;-0.40;99.90
4081;DHT22;2055;50.074;8.436;2023-02-28T02:40:40;-0.40;99.90
4081;DHT22;2055;50.074;8.436;2023-02-28T02:43:15;-0.40;99.90
4081;DHT22;2055;50.074;8.436;2023-02-28T02:45:47;-0.50;99.90
4081;DHT22;2055;50.074;8.436;2023-02-28T02:48:17;-0.50;99.90
4081;DHT22;2055;50.074;8.436;2023-02-28T02:50:55;-0.50;99.90
4081;DHT22;2055;50.074;8.436;2023-02-28T02:53:27;-0.50;99.90
4081;DHT22;2055;50.074;8.436;2023-02-28T02:55:55;-0.50;99.90
4081;DHT22;2055;50.074;8.436;2023-02-28T02:58:27;-0.50;99.90
4081;DHT22;2055;50.074;8.436;2023-02-28T03:00:58;-0.50;99.90
4081;DHT22;2055;50.074;8.436;2023-02-28T03:03:25;-0.50;99.90
4081;DHT22;2055;50.074;8.436;2023-02-28T03:05:58;-0.60;99.90
4081;DHT22;2055;50.074;8.436;2023-02-28T03:08:25;-0.50;99.90
4081;DHT22;2055;50.074;8.436;2023-02-28T03:10:55;-0.50;99.90
4081;DHT22;2055;50.074;8.436;2023-02-28T03:16:35;-0.50;99.90
4081;DHT22;2055;50.074;8.436;2023-02-28T03:21:49;-0.60;99.90
4081;DHT22;2055;50.074;8.436;2023-02-28T03:24:31;-0.50;99.90
4081;DHT22;2055;50.074;8.436;2023-02-28T03:27:03;-0.50;99.90
4081;DHT22;2055;50.074;8.436;2023-02-28T03:29:34;-0.60;99.90
4081;DHT22;2055;50.074;8.436;2023-02-28T03:32:33;-0.60;99.90
4081;DHT22;2055;50.074;8.436;2023-02-28T03:35:16;-0.60;99.90
4081;DHT22;2055;50.074;8.436;2023-02-28T03:37:49;-0.60;99.90
4081;DHT22;2055;50.074;8.436;2023-02-28T03:40:19;-0.50;99.90
4081;DHT22;2055;50.074;8.436;2023-02-28T03:42:49;-0.50;99.90
4081;DHT22;2055;50.074;8.436;2023-02-28T03:45:22;-0.60;99.90
4081;DHT22;2055;50.074;8.436;2023-02-28T03:48:03;-0.60;99.90
4081;DHT22;2055;50.074;8.436;2023-02-28T03:50:37;-0.60;99.90
4081;DHT22;2055;50.074;8.436;2023-02-28T03:56:01;-0.60;99.90
4081;DHT22;2055;50.074;8.436;2023-02-28T04:01:15;-0.70;99.90
4081;DHT22;2055;50.074;8.436;2023-02-28T04:03:43;-0.60;99.90
4081;DHT22;2055;50.074;8.436;2023-02-28T04:06:15;-0.40;99.90
4081;DHT22;2055;50.074;8.436;2023-02-28T04:08:41;-0.40;99.90
4081;DHT22;2055;50.074;8.436;2023-02-28T04:11:23;-0.60;99.90
4081;DHT22;2055;50.074;8.436;2023-02-28T04:13:49;-0.60;99.90
4081;DHT22;2055;50.074;8.436;2023-02-28T04:16:15;-0.60;99.90
4081;DHT22;2055;50.074;8.436;2023-02-28T04:18:43;-0.50;99.90
4081;DHT22;2055;50.074;8.436;2023-02-28T04:21:10;-0.50;99.90
4081;DHT22;2055;50.074;8.436;2023-02-28T04:23:35;-0.50;99.90
4081;DHT22;2055;50.074;8.436;2023-02-28T04:26:01;-0.60;99.90
4081;DHT22;2055;50.074;8.436;2023-02-28T04:28:26;-0.60;99.90
4081;DHT22;2055;50.074;8.436;2023-02-28T04:31:00;-0.60;99.90
4081;DHT22;2055;50.074;8.436;2023-02-28T04:33:26;-0.60;99.90
4081;DHT22;2055;50.074;8.436;2023-02-28T04:36:04;-0.60;99.90
4081;DHT22;2055;50.074;8.436;2023-02-28T04:38:33;-0.60;99.90
4081;DHT22;2055;50.074;8.436;2023-02-28T04:40:59;-0.60;99.90
4081;DHT22;2055;50.074;8.436;2023-02-28T04:43:26;-0.70;99.90
4081;DHT22;2055;50.074;8.436;2023-02-28T04:45:52;-0.30;99.90
4081;DHT22;2055;50.074;8.436;2023-02-28T04:48:18;-0.70;99.90
4081;DHT22;2055;50.074;8.436;2023-02-28T04:50:43;-0.70;99.90
4081;DHT22;2055;50.074;8.436;2023-02-28T04:53:09;-0.70;99.90
4081;DHT22;2055;50.074;8.436;2023-02-28T04:55:34;-0.70;99.90
4081;DHT22;2055;50.074;8.436;2023-02-28T04:58:00;-0.70;99.90
4081;DHT22;2055;50.074;8.436;2023-02-28T05:00:25;-0.70;99.90
4081;DHT22;2055;50.074;8.436;2023-02-28T05:02:51;-0.40;99.90
4081;DHT22;2055;50.074;8.436;2023-02-28T05:05:16;-0.70;99.90
4081;DHT22;2055;50.074;8.436;2023-02-28T05:07:44;-0.70;99.90
4081;DHT22;2055;50.074;8.436;2023-02-28T05:10:10;-0.80;99.90
4081;DHT22;2055;50.074;8.436;2023-02-28T05:12:36;-0.80;99.90
4081;DHT22;2055;50.074;8.436;2023-02-28T05:15:02;-0.80;99.90
4081;DHT22;2055;50.074;8.436;2023-02-28T05:17:28;-0.70;99.90
4081;DHT22;2055;50.074;8.436;2023-02-28T05:19:54;-0.70;99.90
4081;DHT22;2055;50.074;8.436;2023-02-28T05:22:19;-0.60;99.90
4081;DHT22;2055;50.074;8.436;2023-02-28T05:24:45;-0.60;99.90
4081;DHT22;2055;50.074;8.436;2023-02-28T05:27:10;-0.20;99.90
4081;DHT22;2055;50.074;8.436;2023-02-28T05:29:36;-0.50;99.90
4081;DHT22;2055;50.074;8.436;2023-02-28T05:32:10;-0.30;99.90
4081;DHT22;2055;50.074;8.436;2023-02-28T05:34:40;-0.40;99.90
4081;DHT22;2055;50.074;8.436;2023-02-28T05:37:06;-0.40;99.90
4081;DHT22;2055;50.074;8.436;2023-02-28T05:39:36;-0.10;99.90
4081;DHT22;2055;50.074;8.436;2023-02-28T05:42:01;-0.40;99.90
4081;DHT22;2055;50.074;8.436;2023-02-28T05:44:27;-0.40;99.90
4081;DHT22;2055;50.074;8.436;2023-02-28T05:46:52;-0.40;99.90
4081;DHT22;2055;50.074;8.436;2023-02-28T05:49:18;0.00;99.90
4081;DHT22;2055;50.074;8.436;2023-02-28T05:51:43;-0.40;99.90
4081;DHT22;2055;50.074;8.436;2023-02-28T05:54:09;-0.40;99.90
4081;DHT22;2055;50.074;8.436;2023-02-28T05:56:34;0.60;99.90
4081;DHT22;2055;50.074;8.436;2023-02-28T05:59:01;-0.40;99.90
4081;DHT22;2055;50.074;8.436;2023-02-28T06:01:36;-0.40;99.90
4081;DHT22;2055;50.074;8.436;2023-02-28T06:04:03;-0.50;99.90
4081;DHT22;2055;50.074;8.436;2023-02-28T06:06:29;-0.40;99.90
4081;DHT22;2055;50.074;8.436;2023-02-28T06:08:56;-0.40;99.90
4081;DHT22;2055;50.074;8.436;2023-02-28T06:11:22;-0.50;99.90
4081;DHT22;2055;50.074;8.436;2023-02-28T06:13:57;-0.50;99.90
4081;DHT22;2055;50.074;8.436;2023-02-28T06:16:25;-0.50;99.90
4081;DHT22;2055;50.074;8.436;2023-02-28T06:18:52;-0.50;99.90
4081;DHT22;2055;50.074;8.436;2023-02-28T06:21:18;-0.60;99.90
4081;DHT22;2055;50.074;8.436;2023-02-28T06:23:43;-0.50;99.90
4081;DHT22;2055;50.074;8.436;2023-02-28T06:26:09;-0.50;99.90
4081;DHT22;2055;50.074;8.436;2023-02-28T06:28:35;-0.20;99.90
4081;DHT22;2055;50.074;8.436;2023-02-28T06:31:09;0.90;99.90
4081;DHT22;2055;50.074;8.436;2023-02-28T06:33:35;-0.50;99.90
4081;DHT22;2055;50.074;8.436;2023-02-28T06:36:01;-0.40;99.90
4081;DHT22;2055;50.074;8.436;2023-02-28T06:38:27;-0.40;99.90
4081;DHT22;2055;50.074;8.436;2023-02-28T06:40:54;-0.50;99.90
4081;DHT22;2055;50.074;8.436;2023-02-28T06:43:20;-0.20;99.90
4081;DHT22;2055;50.074;8.436;2023-02-28T06:45:47;-0.30;99.90
4081;DHT22;2055;50.074;8.436;2023-02-28T06:48:12;-0.30;99.90
4081;DHT22;2055;50.074;8.436;2023-02-28T06:50:38;-0.20;99.90
4081;DHT22;2055;50.074;8.436;2023-02-28T06:53:03;-0.20;99.90
4081;DHT22;2055;50.074;8.436;2023-02-28T06:55:29;-0.10;99.90
4081;DHT22;2055;50.074;8.436;2023-02-28T06:57:54;0.00;99.90
4081;DHT22;2055;50.074;8.436;2023-02-28T07:00:20;0.10;99.90
4081;DHT22;2055;50.074;8.436;2023-02-28T07:02:46;0.00;99.90
4081;DHT22;2055;50.074;8.436;2023-02-28T07:05:13;0.10;99.90
4081;DHT22;2055;50.074;8.436;2023-02-28T07:07:38;0.10;99.90
4081;DHT22;2055;50.074;8.436;2023-02-28T07:10:10;0.20;99.90
4081;DHT22;2055;50.074;8.436;2023-02-28T07:12:36;0.30;99.90
4081;DHT22;2055;50.074;8.436;2023-02-28T07:15:03;0.40;99.90
4081;DHT22;2055;50.074;8.436;2023-02-28T07:17:29;0.80;99.90
4081;DHT22;2055;50.074;8.436;2023-02-28T07:19:54;0.50;99.90
4081;DHT22;2055;50.074;8.436;2023-02-28T07:22:20;0.60;99.90
4081;DHT22;2055;50.074;8.436;2023-02-28T07:24:45;0.70;99.90
4081;DHT22;2055;50.074;8.436;2023-02-28T07:27:11;0.80;99.90
4081;DHT22;2055;50.074;8.436;2023-02-28T07:29:36;0.80;99.90
4081;DHT22;2055;50.074;8.436;2023-02-28T07:32:03;0.90;99.90
4081;DHT22;2055;50.074;8.436;2023-02-28T07:34:29;1.00;99.90
4081;DHT22;2055;50.074;8.436;2023-02-28T07:36:55;1.00;99.90
4081;DHT22;2055;50.074;8.436;2023-02-28T07:39:21;1.10;99.90
4081;DHT22;2055;50.074;8.436;2023-02-28T07:41:47;1.20;99.90
4081;DHT22;2055;50.074;8.436;2023-02-28T07:44:12;1.20;99.90
4081;DHT22;2055;50.074;8.436;2023-02-28T07:46:38;1.30;99.90
4081;DHT22;2055;50.074;8.436;2023-02-28T07:49:04;1.30;99.90
4081;DHT22;2055;50.074;8.436;2023-02-28T07:51:30;1.40;99.90
4081;DHT22;2055;50.074;8.436;2023-02-28T07:53:56;1.40;99.90
4081;DHT22;2055;50.074;8.436;2023-02-28T07:56:22;1.50;99.90
4081;DHT22;2055;50.074;8.436;2023-02-28T07:58:47;1.50;99.90
4081;DHT22;2055;50.074;8.436;2023-02-28T08:01:13;1.50;99.90
4081;DHT22;2055;50.074;8.436;2023-02-28T08:03:39;1.60;99.90
4081;DHT22;2055;50.074;8.436;2023-02-28T08:06:07;1.60;99.90
4081;DHT22;2055;50.074;8.436;2023-02-28T08:08:33;1.60;99.90
4081;DHT22;2055;50.074;8.436;2023-02-28T08:11:03;1.70;99.90
4081;DHT22;2055;50.074;8.436;2023-02-28T08:13:29;1.70;99.90
4081;DHT22;2055;50.074;8.436;2023-02-28T08:15:55;1.80;99.90
4081;DHT22;2055;50.074;8.436;2023-02-28T08:18:22;1.80;99.90
4081;DHT22;2055;50.074;8.436;2023-02-28T08:20:48;1.90;99.90
4081;DHT22;2055;50.074;8.436;2023-02-28T08:23:13;2.00;99.90
4081;DHT22;2055;50.074;8.436;2023-02-28T08:25:39;2.40;99.90
4081;DHT22;2055;50.074;8.436;2023-02-28T08:28:05;2.20;99.90
4081;DHT22;2055;50.074;8.436;2023-02-28T08:30:30;2.20;99.90
4081;DHT22;2055;50.074;8.436;2023-02-28T08:32:56;2.20;99.90
4081;DHT22;2055;50.074;8.436;2023-02-28T08:35:22;2.30;99.90
4081;DHT22;2055;50.074;8.436;2023-02-28T08:37:48;2.30;99.90
4081;DHT22;2055;50.074;8.436;2023-02-28T08:40:15;2.40;99.90
4081;DHT22;2055;50.074;8.436;2023-02-28T08:42:47;2.50;99.90
4081;DHT22;2055;50.074;8.436;2023-02-28T08:45:14;2.40;99.90
4081;DHT22;2055;50.074;8.436;2023-02-28T08:47:40;2.40;99.90
4081;DHT22;2055;50.074;8.436;2023-02-28T08:50:06;2.40;99.90
4081;DHT22;2055;50.074;8.436;2023-02-28T08:52:32;2.50;99.90
4081;DHT22;2055;50.074;8.436;2023-02-28T08:54:57;2.70;99.90
4081;DHT22;2055;50.074;8.436;2023-02-28T08:57:23;2.70;99.90
4081;DHT22;2055;50.074;8.436;2023-02-28T08:59:51;2.70;99.90
4081;DHT22;2055;50.074;8.436;2023-02-28T09:02:17;2.70;99.90
4081;DHT22;2055;50.074;8.436;2023-02-28T09:04:43;2.90;99.90
4081;DHT22;2055;50.074;8.436;2023-02-28T09:07:11;3.00;99.90
4081;DHT22;2055;50.074;8.436;2023-02-28T09:09:36;3.00;99.90
4081;DHT22;2055;50.074;8.436;2023-02-28T09:12:02;2.90;99.90
4081;DHT22;2055;50.074;8.436;2023-02-28T09:14:28;3.10;99.90
4081;DHT22;2055;50.074;8.436;2023-02-28T09:16:53;3.20;99.90
4081;DHT22;2055;50.074;8.436;2023-02-28T09:19:19;3.50;99.90
4081;DHT22;2055;50.074;8.436;2023-02-28T09:21:45;3.40;99.90
4081;DHT22;2055;50.074;8.436;2023-02-28T09:24:11;3.50;99.90
4081;DHT22;2055;50.074;8.436;2023-02-28T09:26:39;3.40;99.90
4081;DHT22;2055;50.074;8.436;2023-02-28T09:29:05;3.50;99.90
4081;DHT22;2055;50.074;8.436;2023-02-28T09:31:32;3.40;99.90
4081;DHT22;2055;50.074;8.436;2023-02-28T09:33:58;3.40;99.90
4081;DHT22;2055;50.074;8.436;2023-02-28T09:36:26;3.60;99.90
4081;DHT22;2055;50.074;8.436;2023-02-28T09:38:51;3.60;99.90
4081;DHT22;2055;50.074;8.436;2023-02-28T09:41:24;3.60;99.90
4081;DHT22;2055;50.074;8.436;2023-02-28T09:43:58;3.60;99.90
4081;DHT22;2055;50.074;8.436;2023-02-28T09:46:37;3.90;99.90
4081;DHT22;2055;50.074;8.436;2023-02-28T09:49:10;3.80;99.90
4081;DHT22;2055;50.074;8.436;2023-02-28T09:54:15;4.20;99.90
4081;DHT22;2055;50.074;8.436;2023-02-28T09:56:45;4.40;99.90
4081;DHT22;2055;50.074;8.436;2023-02-28T10:05:14;4.30;99.90
4081;DHT22;2055;50.074;8.436;2023-02-28T10:08:03;4.60;99.90
4081;DHT22;2055;50.074;8.436;2023-02-28T10:10:44;4.50;99.90
4081;DHT22;2055;50.074;8.436;2023-02-28T10:13:27;5.00;99.90
4081;DHT22;2055;50.074;8.436;2023-02-28T10:16:05;4.70;99.90
4081;DHT22;2055;50.074;8.436;2023-02-28T10:18:43;4.50;99.90
4081;DHT22;2055;50.074;8.436;2023-02-28T10:21:20;4.80;99.90
4081;DHT22;2055;50.074;8.436;2023-02-28T10:23:48;4.90;99.90
4081;DHT22;2055;50.074;8.436;2023-02-28T10:26:15;4.90;99.90
4081;DHT22;2055;50.074;8.436;2023-02-28T10:28:42;4.90;99.90
4081;DHT22;2055;50.074;8.436;2023-02-28T10:31:15;5.10;99.90
4081;DHT22;2055;50.074;8.436;2023-02-28T10:33:43;5.20;99.90
4081;DHT22;2055;50.074;8.436;2023-02-28T10:36:16;5.00;99.90
4081;DHT22;2055;50.074;8.436;2023-02-28T10:38:42;4.80;99.90
4081;DHT22;2055;50.074;8.436;2023-02-28T10:41:10;9.00;99.90
4081;DHT22;2055;50.074;8.436;2023-02-28T10:43:37;12.10;97.70
4081;DHT22;2055;50.074;8.436;2023-02-28T10:48:38;6.70;95.00
4081;DHT22;2055;50.074;8.436;2023-02-28T10:51:11;11.40;93.70
4081;DHT22;2055;50.074;8.436;2023-02-28T10:58:56;7.30;93.90
4081;DHT22;2055;50.074;8.436;2023-02-28T11:03:49;6.00;93.30
4081;DHT22;2055;50.074;8.436;2023-02-28T11:06:26;7.20;94.20
4081;DHT22;2055;50.074;8.436;2023-02-28T11:08:57;10.50;92.10
4081;DHT22;2055;50.074;8.436;2023-02-28T11:11:26;12.30;90.90
4081;DHT22;2055;50.074;8.436;2023-02-28T11:13:58;12.90;89.40
4081;DHT22;2055;50.074;8.436;2023-02-28T11:16:35;13.60;81.50
4081;DHT22;2055;50.074;8.436;2023-02-28T11:19:04;14.00;80.30
4081;DHT22;2055;50.074;8.436;2023-02-28T11:21:33;14.20;74.00
4081;DHT22;2055;50.074;8.436;2023-02-28T11:26:48;12.40;76.20
4081;DHT22;2055;50.074;8.436;2023-02-28T11:29:28;12.60;74.30
4081;DHT22;2055;50.074;8.436;2023-02-28T11:34:35;12.50;70.70
4081;DHT22;2055;50.074;8.436;2023-02-28T11:37:02;13.00;71.60
4081;DHT22;2055;50.074;8.436;2023-02-28T11:39:32;12.50;70.00
4081;DHT22;2055;50.074;8.436;2023-02-28T11:45:11;11.90;69.50
4081;DHT22;2055;50.074;8.436;2023-02-28T11:56:36;10.60;68.80
4081;DHT22;2055;50.074;8.436;2023-02-28T12:10:25;10.00;70.60
4081;DHT22;2055;50.074;8.436;2023-02-28T12:20:32;10.50;70.30
4081;DHT22;2055;50.074;8.436;2023-02-28T12:23:19;10.00;69.70
4081;DHT22;2055;50.074;8.436;2023-02-28T12:28:25;10.30;71.70
4081;DHT22;2055;50.074;8.436;2023-02-28T12:31:01;10.00;71.80
4081;DHT22;2055;50.074;8.436;2023-02-28T12:33:35;10.50;71.50
4081;DHT22;2055;50.074;8.436;2023-02-28T12:36:05;10.80;71.20
4081;DHT22;2055;50.074;8.436;2023-02-28T12:38:48;9.90;70.80
4081;DHT22;2055;50.074;8.436;2023-02-28T12:41:22;9.50;70.40
4081;DHT22;2055;50.074;8.436;2023-02-28T12:44:00;9.50;70.60
4081;DHT22;2055;50.074;8.436;2023-02-28T12:46:34;9.80;72.80
4081;DHT22;2055;50.074;8.436;2023-02-28T12:49:08;9.60;71.30
4081;DHT22;2055;50.074;8.436;2023-02-28T12:51:35;9.60;70.70
4081;DHT22;2055;50.074;8.436;2023-02-28T12:54:37;8.90;71.10
4081;DHT22;2055;50.074;8.436;2023-02-28T12:59:51;9.10;74.00
4081;DHT22;2055;50.074;8.436;2023-02-28T13:10:15;8.30;71.40
4081;DHT22;2055;50.074;8.436;2023-02-28T13:12:50;8.30;73.60
4081;DHT22;2055;50.074;8.436;2023-02-28T13:15:17;8.10;71.80
4081;DHT22;2055;50.074;8.436;2023-02-28T13:17:49;7.80;72.90
4081;DHT22;2055;50.074;8.436;2023-02-28T13:20:36;7.90;72.80
4081;DHT22;2055;50.074;8.436;2023-02-28T13:23:02;8.00;74.60
4081;DHT22;2055;50.074;8.436;2023-02-28T13:28:09;8.20;74.60
4081;DHT22;2055;50.074;8.436;2023-02-28T13:38:44;8.30;74.40
4081;DHT22;2055;50.074;8.436;2023-02-28T13:46:33;8.80;75.90
4081;DHT22;2055;50.074;8.436;2023-02-28T13:49:27;8.50;73.60
4081;DHT22;2055;50.074;8.436;2023-02-28T14:00:08;7.80;74.30
4081;DHT22;2055;50.074;8.436;2023-02-28T14:03:00;8.00;74.80
4081;DHT22;2055;50.074;8.436;2023-02-28T14:05:32;7.80;74.20
4081;DHT22;2055;50.074;8.436;2023-02-28T14:08:24;7.80;75.20
4081;DHT22;2055;50.074;8.436;2023-02-28T14:11:03;8.10;74.80
4081;DHT22;2055;50.074;8.436;2023-02-28T14:13:39;7.80;74.30
4081;DHT22;2055;50.074;8.436;2023-02-28T14:16:14;8.10;76.50
4081;DHT22;2055;50.074;8.436;2023-02-28T14:18:47;8.50;76.30
4081;DHT22;2055;50.074;8.436;2023-02-28T14:21:25;8.60;75.10
4081;DHT22;2055;50.074;8.436;2023-02-28T14:24:03;8.40;74.60
4081;DHT22;2055;50.074;8.436;2023-02-28T14:29:55;8.50;75.60
4081;DHT22;2055;50.074;8.436;2023-02-28T14:32:47;8.60;75.80
4081;DHT22;2055;50.074;8.436;2023-02-28T14:38:18;8.40;76.20
4081;DHT22;2055;50.074;8.436;2023-02-28T14:40:47;8.90;76.10
4081;DHT22;2055;50.074;8.436;2023-02-28T14:43:23;8.90;76.80
4081;DHT22;2055;50.074;8.436;2023-02-28T14:45:51;9.00;75.70
4081;DHT22;2055;50.074;8.436;2023-02-28T14:48:19;8.30;74.40
4081;DHT22;2055;50.074;8.436;2023-02-28T14:50:49;8.40;76.50
4081;DHT22;2055;50.074;8.436;2023-02-28T14:53:19;8.70;76.20
4081;DHT22;2055;50.074;8.436;2023-02-28T14:55:47;8.90;76.90
4081;DHT22;2055;50.074;8.436;2023-02-28T14:58:27;8.80;75.50
4081;DHT22;2055;50.074;8.436;2023-02-28T15:00:55;8.80;76.80
4081;DHT22;2055;50.074;8.436;2023-02-28T15:03:34;8.60;76.10
4081;DHT22;2055;50.074;8.436;2023-02-28T15:06:03;8.50;76.10
4081;DHT22;2055;50.074;8.436;2023-02-28T15:08:30;8.50;77.30
4081;DHT22;2055;50.074;8.436;2023-02-28T15:11:04;8.80;77.60
4081;DHT22;2055;50.074;8.436;2023-02-28T15:16:04;8.90;77.40
4081;DHT22;2055;50.074;8.436;2023-02-28T15:18:45;8.90;76.70
4081;DHT22;2055;50.074;8.436;2023-02-28T15:21:23;8.70;76.30
4081;DHT22;2055;50.074;8.436;2023-02-28T15:23:54;8.40;76.10
4081;DHT22;2055;50.074;8.436;2023-02-28T15:26:24;8.30;76.70
4081;DHT22;2055;50.074;8.436;2023-02-28T15:28:58;7.90;76.90
4081;DHT22;2055;50.074;8.436;2023-02-28T15:31:40;7.90;77.40
4081;DHT22;2055;50.074;8.436;2023-02-28T15:34:20;8.10;77.50
4081;DHT22;2055;50.074;8.436;2023-02-28T15:36:46;7.80;77.00
4081;DHT22;2055;50.074;8.436;2023-02-28T15:39:20;8.00;78.60
4081;DHT22;2055;50.074;8.436;2023-02-28T15:41:46;8.10;78.10
4081;DHT22;2055;50.074;8.436;2023-02-28T15:47:01;7.50;79.10
4081;DHT22;2055;50.074;8.436;2023-02-28T15:49:29;7.30;80.40
4081;DHT22;2055;50.074;8.436;2023-02-28T15:51:58;7.00;80.40
4081;DHT22;2055;50.074;8.436;2023-02-28T15:54:33;6.80;80.90
4081;DHT22;2055;50.074;8.436;2023-02-28T15:57:14;6.60;81.60
4081;DHT22;2055;50.074;8.436;2023-02-28T15:59:52;6.20;83.30
4081;DHT22;2055;50.074;8.436;2023-02-28T16:02:39;5.80;85.70
4081;DHT22;2055;50.074;8.436;2023-02-28T16:07:38;5.40;90.30
4081;DHT22;2055;50.074;8.436;2023-02-28T16:10:05;5.40;91.40
4081;DHT22;2055;50.074;8.436;2023-02-28T16:12:34;5.30;91.10
4081;DHT22;2055;50.074;8.436;2023-02-28T16:15:02;5.10;92.10
4081;DHT22;2055;50.074;8.436;2023-02-28T16:17:33;5.00;93.00
4081;DHT22;2055;50.074;8.436;2023-02-28T16:19:59;4.90;93.90
4081;DHT22;2055;50.074;8.436;2023-02-28T16:22:25;4.90;94.70
4081;DHT22;2055;50.074;8.436;2023-02-28T16:24:51;4.80;94.90
4081;DHT22;2055;50.074;8.436;2023-02-28T16:27:27;4.80;95.60
4081;DHT22;2055;50.074;8.436;2023-02-28T16:29:54;4.70;95.80
4081;DHT22;2055;50.074;8.436;2023-02-28T16:32:19;4.70;96.30
4081;DHT22;2055;50.074;8.436;2023-02-28T16:34:45;4.60;96.70
4081;DHT22;2055;50.074;8.436;2023-02-28T16:37:16;4.60;97.10
4081;DHT22;2055;50.074;8.436;2023-02-28T16:39:43;4.50;97.40
4081;DHT22;2055;50.074;8.436;2023-02-28T16:42:20;4.50;98.30
4081;DHT22;2055;50.074;8.436;2023-02-28T16:44:47;4.40;98.90
4081;DHT22;2055;50.074;8.436;2023-02-28T16:47:13;4.30;99.00
4081;DHT22;2055;50.074;8.436;2023-02-28T16:49:38;4.30;99.50
4081;DHT22;2055;50.074;8.436;2023-02-28T16:52:07;4.30;99.80
4081;DHT22;2055;50.074;8.436;2023-02-28T16:54:33;4.10;99.90
4081;DHT22;2055;50.074;8.436;2023-02-28T16:56:59;4.10;99.90
4081;DHT22;2055;50.074;8.436;2023-02-28T16:59:26;4.00;99.90
4081;DHT22;2055;50.074;8.436;2023-02-28T17:01:53;3.90;99.90
4081;DHT22;2055;50.074;8.436;2023-02-28T17:04:19;3.90;99.90
4081;DHT22;2055;50.074;8.436;2023-02-28T17:06:44;3.80;99.90
4081;DHT22;2055;50.074;8.436;2023-02-28T17:09:20;3.70;99.90
4081;DHT22;2055;50.074;8.436;2023-02-28T17:11:46;3.60;99.90
4081;DHT22;2055;50.074;8.436;2023-02-28T17:14:12;3.60;99.90
4081;DHT22;2055;50.074;8.436;2023-02-28T17:16:39;3.50;99.90
4081;DHT22;2055;50.074;8.436;2023-02-28T17:19:06;3.50;99.90
4081;DHT22;2055;50.074;8.436;2023-02-28T17:21:33;3.40;99.90
4081;DHT22;2055;50.074;8.436;2023-02-28T17:23:59;3.50;99.90
4081;DHT22;2055;50.074;8.436;2023-02-28T17:26:26;3.40;99.90
4081;DHT22;2055;50.074;8.436;2023-02-28T17:28:53;3.60;99.90
4081;DHT22;2055;50.074;8.436;2023-02-28T17:31:23;3.30;99.90
4081;DHT22;2055;50.074;8.436;2023-02-28T17:33:49;3.30;99.90
4081;DHT22;2055;50.074;8.436;2023-02-28T17:36:17;3.20;99.90
4081;DHT22;2055;50.074;8.436;2023-02-28T17:38:47;3.10;99.90
4081;DHT22;2055;50.074;8.436;2023-02-28T17:41:13;3.10;99.90
4081;DHT22;2055;50.074;8.436;2023-02-28T17:43:39;3.10;99.90
4081;DHT22;2055;50.074;8.436;2023-02-28T17:46:05;3.10;99.90
4081;DHT22;2055;50.074;8.436;2023-02-28T17:48:32;3.00;99.90
4081;DHT22;2055;50.074;8.436;2023-02-28T17:50:58;2.90;99.90
4081;DHT22;2055;50.074;8.436;2023-02-28T17:53:23;3.00;99.90
4081;DHT22;2055;50.074;8.436;2023-02-28T17:55:50;2.80;99.90
4081;DHT22;2055;50.074;8.436;2023-02-28T17:58:16;2.70;99.90
4081;DHT22;2055;50.074;8.436;2023-02-28T18:00:44;2.60;99.90
4081;DHT22;2055;50.074;8.436;2023-02-28T18:03:09;2.60;99.90
4081;DHT22;2055;50.074;8.436;2023-02-28T18:05:36;2.60;99.90
4081;DHT22;2055;50.074;8.436;2023-02-28T18:08:02;2.60;99.90
4081;DHT22;2055;50.074;8.436;2023-02-28T18:10:27;2.50;99.90
4081;DHT22;2055;50.074;8.436;2023-02-28T18:12:53;2.50;99.90
4081;DHT22;2055;50.074;8.436;2023-02-28T18:15:21;2.80;99.90
4081;DHT22;2055;50.074;8.436;2023-02-28T18:17:47;2.60;99.90
4081;DHT22;2055;50.074;8.436;2023-02-28T18:20:13;2.40;99.90
4081;DHT22;2055;50.074;8.436;2023-02-28T18:22:40;2.70;99.90
4081;DHT22;2055;50.074;8.436;2023-02-28T18:25:08;2.60;99.90
4081;DHT22;2055;50.074;8.436;2023-02-28T18:27:34;2.30;99.90
4081;DHT22;2055;50.074;8.436;2023-02-28T18:30:01;2.40;99.90
4081;DHT22;2055;50.074;8.436;2023-02-28T18:32:28;2.40;99.90
4081;DHT22;2055;50.074;8.436;2023-02-28T18:34:53;2.40;99.90
4081;DHT22;2055;50.074;8.436;2023-02-28T18:37:19;2.30;99.90
4081;DHT22;2055;50.074;8.436;2023-02-28T18:39:45;2.30;99.90
4081;DHT22;2055;50.074;8.436;2023-02-28T18:42:10;2.30;99.90